createdAt,value
2022-09-12T00:00:32.124Z,22.70
2022-09-12T00:03:01.560Z,22.71
2022-09-12T00:05:31.163Z,22.70
2022-09-12T00:07:59.281Z,22.70
2022-09-12T00:10:27.380Z,22.70
2022-09-12T00:12:55.459Z,22.70
2022-09-12T00:15:23.488Z,22.71
2022-09-12T00:17:51.559Z,22.69
2022-09-12T00:20:21.196Z,22.70
2022-09-12T00:22:49.278Z,22.70
2022-09-12T00:25:17.461Z,22.72
2022-09-12T00:27:45.580Z,22.70
2022-09-12T00:30:13.908Z,22.70
2022-09-12T00:32:41.991Z,22.70
2022-09-12T00:35:10.124Z,22.70
2022-09-12T00:37:39.614Z,22.70
2022-09-12T00:40:08.894Z,22.69
2022-09-12T00:42:37.073Z,22.68
2022-09-12T00:45:06.501Z,22.69
2022-09-12T00:47:34.569Z,22.69
2022-09-12T00:50:05.128Z,22.68
2022-09-12T00:52:35.324Z,22.67
2022-09-12T00:55:07.284Z,22.68
2022-09-12T00:57:37.108Z,22.68
2022-09-12T01:00:12.220Z,22.69
2022-09-12T01:02:40.324Z,22.69
2022-09-12T01:05:09.460Z,22.70
2022-09-12T01:07:40.003Z,22.69
2022-09-12T01:10:10.764Z,22.68
2022-09-12T01:12:40.196Z,22.68
2022-09-12T01:15:08.779Z,22.69
2022-09-12T01:17:43.749Z,22.68
2022-09-12T01:20:38.062Z,22.70
2022-09-12T01:23:35.000Z,22.69
2022-09-12T01:26:13.383Z,22.69
2022-09-12T01:28:53.389Z,22.68
2022-09-12T01:31:23.591Z,22.70
2022-09-12T01:33:59.865Z,22.68
2022-09-12T01:36:41.999Z,22.69
2022-09-12T01:39:15.441Z,22.69
2022-09-12T01:41:46.440Z,22.68
2022-09-12T01:44:17.823Z,22.68
2022-09-12T01:46:49.178Z,22.68
2022-09-12T01:49:19.188Z,22.68
2022-09-12T01:51:52.600Z,22.69
2022-09-12T01:54:22.239Z,22.68
2022-09-12T01:56:50.995Z,22.67
2022-09-12T01:59:20.257Z,22.68
2022-09-12T02:01:53.151Z,22.68
2022-09-12T02:04:22.195Z,22.66
2022-09-12T02:06:51.316Z,22.68
2022-09-12T02:09:20.840Z,22.68
2022-09-12T02:11:49.272Z,22.67
2022-09-12T02:14:19.255Z,22.66
2022-09-12T02:16:50.021Z,22.67
2022-09-12T02:19:19.818Z,22.66
2022-09-12T02:21:49.829Z,22.67
2022-09-12T02:24:17.884Z,22.67
2022-09-12T02:26:48.895Z,22.67
2022-09-12T02:29:17.015Z,22.68
2022-09-12T02:31:46.576Z,22.67
2022-09-12T02:34:23.642Z,22.68
2022-09-12T02:36:54.718Z,22.68
2022-09-12T02:39:22.857Z,22.67
2022-09-12T02:41:51.765Z,22.67
2022-09-12T02:44:20.031Z,22.67
2022-09-12T02:46:48.965Z,22.66
2022-09-12T02:49:18.532Z,22.66
2022-09-12T02:51:46.744Z,22.68
2022-09-12T02:54:15.027Z,22.67
2022-09-12T02:56:43.812Z,22.67
2022-09-12T02:59:14.028Z,22.66
2022-09-12T03:01:50.727Z,22.65
2022-09-12T03:04:29.005Z,22.66
2022-09-12T03:07:03.017Z,22.65
2022-09-12T03:09:34.427Z,22.65
2022-09-12T03:12:12.951Z,22.65
2022-09-12T03:15:02.083Z,22.65
2022-09-12T03:17:34.036Z,22.63
2022-09-12T03:20:05.512Z,22.64
2022-09-12T03:22:35.481Z,22.64
2022-09-12T03:25:07.144Z,22.64
2022-09-12T03:27:36.592Z,22.63
2022-09-12T03:30:05.355Z,22.62
2022-09-12T03:32:43.992Z,22.63
2022-09-12T03:35:13.668Z,22.64
2022-09-12T03:37:41.852Z,22.64
2022-09-12T03:40:11.819Z,22.65
2022-09-12T03:42:40.101Z,22.63
2022-09-12T03:45:09.383Z,22.63
2022-09-12T03:47:37.569Z,22.64
2022-09-12T03:50:06.616Z,22.63
2022-09-12T03:52:36.250Z,22.63
2022-09-12T03:55:04.752Z,22.63
2022-09-12T03:57:32.926Z,22.64
2022-09-12T04:00:02.114Z,22.63
2022-09-12T04:02:41.005Z,22.63
2022-09-12T04:05:09.753Z,22.63
2022-09-12T04:07:39.285Z,22.64
2022-09-12T04:10:09.606Z,22.63
2022-09-12T04:12:39.566Z,22.63
2022-09-12T04:15:08.934Z,22.63
2022-09-12T04:17:36.995Z,22.63
2022-09-12T04:20:05.716Z,22.62
2022-09-12T04:22:33.800Z,22.63
2022-09-12T04:25:03.347Z,22.62
2022-09-12T04:27:31.415Z,22.62
2022-09-12T04:29:59.617Z,22.62
2022-09-12T04:32:27.667Z,22.63
2022-09-12T04:34:55.763Z,22.63
2022-09-12T04:37:24.532Z,22.62
2022-09-12T04:39:56.107Z,22.62
2022-09-12T04:42:25.699Z,22.62
2022-09-12T04:44:53.780Z,22.62
2022-09-12T04:47:21.852Z,22.63
2022-09-12T04:49:51.179Z,22.64
2022-09-12T04:52:19.229Z,22.63
2022-09-12T04:54:47.329Z,22.62
2022-09-12T04:57:15.367Z,22.63
2022-09-12T04:59:44.884Z,22.63
2022-09-12T05:02:12.991Z,22.63
2022-09-12T05:04:41.062Z,22.63
2022-09-12T05:07:09.136Z,22.63
2022-09-12T05:09:37.245Z,22.64
2022-09-12T05:12:06.094Z,22.65
2022-09-12T05:14:34.408Z,22.67
2022-09-12T05:17:04.086Z,22.70
2022-09-12T05:19:32.407Z,22.72
2022-09-12T05:22:00.700Z,22.74
2022-09-12T05:24:28.901Z,22.73
2022-09-12T05:26:56.985Z,22.72
2022-09-12T05:29:25.704Z,22.70
2022-09-12T05:31:53.861Z,22.70
2022-09-12T05:34:23.418Z,22.74
2022-09-12T05:36:51.509Z,22.77
2022-09-12T05:39:19.748Z,22.78
2022-09-12T05:41:47.891Z,22.80
2022-09-12T05:44:16.129Z,22.81
2022-09-12T05:46:45.188Z,22.82
2022-09-12T05:49:14.616Z,22.85
2022-09-12T05:51:45.470Z,22.85
2022-09-12T05:54:15.036Z,22.80
2022-09-12T05:56:44.069Z,22.67
2022-09-12T05:59:13.475Z,22.66
2022-09-12T06:01:41.837Z,22.70
2022-09-12T06:04:12.648Z,22.74
2022-09-12T06:06:43.491Z,22.77
2022-09-12T06:09:13.093Z,22.79
2022-09-12T06:11:41.928Z,22.81
2022-09-12T06:14:13.536Z,22.74
2022-09-12T06:16:41.810Z,22.63
2022-09-12T06:19:14.458Z,22.57
2022-09-12T06:21:42.552Z,22.51
2022-09-12T06:24:12.219Z,22.48
2022-09-12T06:26:40.275Z,22.45
2022-09-12T06:29:08.634Z,22.42
2022-09-12T06:31:37.352Z,22.42
2022-09-12T06:34:06.512Z,22.39
2022-09-12T06:36:36.296Z,22.33
2022-09-12T06:39:05.531Z,22.30
2022-09-12T06:41:35.055Z,22.27
2022-09-12T06:44:03.596Z,22.26
2022-09-12T06:46:32.196Z,22.28
2022-09-12T06:49:00.827Z,22.29
2022-09-12T06:51:29.131Z,22.28
2022-09-12T06:53:57.474Z,22.28
2022-09-12T06:56:26.583Z,22.28
2022-09-12T06:58:57.164Z,22.27
2022-09-12T07:01:26.256Z,22.27
2022-09-12T07:03:55.876Z,22.26
2022-09-12T07:06:26.216Z,22.24
2022-09-12T07:08:54.263Z,22.25
2022-09-12T07:11:23.419Z,22.25
2022-09-12T07:13:54.118Z,22.24
2022-09-12T07:16:23.895Z,22.24
2022-09-12T07:18:52.478Z,22.24
2022-09-12T07:21:20.602Z,22.23
2022-09-12T07:23:49.213Z,22.21
2022-09-12T07:26:17.467Z,22.21
2022-09-12T07:28:45.769Z,22.20
2022-09-12T07:31:15.037Z,22.20
2022-09-12T07:33:44.828Z,22.19
2022-09-12T07:36:13.765Z,22.19
2022-09-12T07:38:41.948Z,22.19
2022-09-12T07:41:13.676Z,22.20
2022-09-12T07:43:51.244Z,22.20
2022-09-12T07:46:19.713Z,22.20
2022-09-12T07:48:52.451Z,22.21
2022-09-12T07:51:20.538Z,22.21
2022-09-12T07:53:49.027Z,22.22
2022-09-12T07:56:17.635Z,22.22
2022-09-12T07:58:45.740Z,22.20
2022-09-12T08:01:14.861Z,22.20
2022-09-12T08:03:43.117Z,22.20
2022-09-12T08:06:14.081Z,22.21
2022-09-12T08:08:42.184Z,22.21
2022-09-12T08:11:11.202Z,22.21
2022-09-12T08:13:39.716Z,22.20
2022-09-12T08:16:08.690Z,22.22
2022-09-12T08:18:37.141Z,22.23
2022-09-12T08:21:07.344Z,22.23
2022-09-12T08:23:36.839Z,22.25
2022-09-12T08:26:06.591Z,22.28
2022-09-12T08:28:35.428Z,22.28
2022-09-12T08:31:03.693Z,22.29
2022-09-12T08:33:33.563Z,22.30
2022-09-12T08:36:06.276Z,22.32
2022-09-12T08:38:34.459Z,22.34
2022-09-12T08:41:06.996Z,22.37
2022-09-12T08:43:46.937Z,22.38
2022-09-12T08:46:17.624Z,22.39
2022-09-12T08:48:46.113Z,22.42
2022-09-12T08:51:15.144Z,22.44
2022-09-12T08:53:43.208Z,22.47
2022-09-12T08:56:12.706Z,22.48
2022-09-12T08:58:41.940Z,22.50
2022-09-12T09:01:11.891Z,22.51
2022-09-12T09:04:08.932Z,22.51
2022-09-12T09:06:46.048Z,22.53
2022-09-12T09:09:16.548Z,22.53
2022-09-12T09:11:54.596Z,22.55
2022-09-12T09:14:51.494Z,22.56
2022-09-12T09:17:21.872Z,22.59
2022-09-12T09:19:52.088Z,22.63
2022-09-12T09:22:24.818Z,22.67
2022-09-12T09:24:54.801Z,22.72
2022-09-12T09:27:40.431Z,22.74
2022-09-12T09:30:14.104Z,22.75
2022-09-12T09:32:42.164Z,22.77
2022-09-12T09:35:15.841Z,22.80
2022-09-12T09:37:44.522Z,22.83
2022-09-12T09:40:19.079Z,22.87
2022-09-12T09:42:54.229Z,22.90
2022-09-12T09:45:24.194Z,22.91
2022-09-12T09:47:52.853Z,22.94
2022-09-12T09:50:20.959Z,22.92
2022-09-12T09:52:50.556Z,22.91
2022-09-12T09:55:20.855Z,22.92
2022-09-12T09:57:52.321Z,22.94
2022-09-12T10:00:32.030Z,22.96
2022-09-12T10:03:05.398Z,22.97
2022-09-12T10:05:34.803Z,22.99
2022-09-12T10:08:03.301Z,22.99
2022-09-12T10:10:31.384Z,23.02
2022-09-12T10:13:10.218Z,23.02
2022-09-12T10:15:38.729Z,23.03
2022-09-12T10:18:07.027Z,23.03
2022-09-12T10:20:36.303Z,23.02
2022-09-12T10:23:09.487Z,23.01
2022-09-12T10:25:37.961Z,23.02
2022-09-12T10:28:05.996Z,23.02
2022-09-12T10:30:35.512Z,23.02
2022-09-12T10:33:07.389Z,23.03
2022-09-12T10:35:44.853Z,23.03
2022-09-12T10:38:15.281Z,23.03
2022-09-12T10:40:44.932Z,23.02
2022-09-12T10:43:17.986Z,23.02
2022-09-12T10:45:47.590Z,23.02
2022-09-12T10:48:28.681Z,23.02
2022-09-12T10:50:56.993Z,23.01
2022-09-12T10:53:28.906Z,23.03
2022-09-12T10:56:07.808Z,23.04
2022-09-12T10:58:57.708Z,23.05
2022-09-12T11:01:40.386Z,23.06
2022-09-12T11:04:25.592Z,23.06
2022-09-12T11:07:00.201Z,23.07
2022-09-12T11:09:30.269Z,23.08
2022-09-12T11:12:03.456Z,23.09
2022-09-12T11:14:57.774Z,23.10
2022-09-12T11:17:33.020Z,23.11
2022-09-12T11:20:12.045Z,23.12
2022-09-12T11:23:00.024Z,23.12
2022-09-12T11:25:31.063Z,23.13
2022-09-12T11:28:16.079Z,23.13
2022-09-12T11:30:50.757Z,23.15
2022-09-12T11:33:30.154Z,23.15
2022-09-12T11:35:58.885Z,23.15
2022-09-12T11:38:53.435Z,23.16
2022-09-12T11:41:24.743Z,23.17
2022-09-12T11:43:55.776Z,23.18
2022-09-12T11:46:24.945Z,23.19
2022-09-12T11:48:56.481Z,23.20
2022-09-12T11:51:26.861Z,23.20
2022-09-12T11:54:05.192Z,23.21
2022-09-12T11:56:33.298Z,23.21
2022-09-12T11:59:04.222Z,23.22
2022-09-12T12:01:40.499Z,23.22
2022-09-12T12:04:13.938Z,23.21
2022-09-12T12:06:49.080Z,23.22
2022-09-12T12:09:17.769Z,23.23
2022-09-12T12:11:48.742Z,23.23
2022-09-12T12:14:18.394Z,23.24
2022-09-12T12:16:46.521Z,23.24
2022-09-12T12:19:32.826Z,23.24
2022-09-12T12:22:09.927Z,23.24
2022-09-12T12:24:54.467Z,23.25
2022-09-12T12:27:26.436Z,23.25
2022-09-12T12:29:54.611Z,23.24
2022-09-12T12:32:23.877Z,23.25
2022-09-12T12:35:02.268Z,23.24
2022-09-12T12:38:00.309Z,23.26
2022-09-12T12:40:29.500Z,23.25
2022-09-12T12:43:05.521Z,23.26
2022-09-12T12:46:10.380Z,23.27
2022-09-12T12:49:11.189Z,23.26
2022-09-12T12:51:56.629Z,23.28
2022-09-12T12:54:32.917Z,23.28
2022-09-12T12:57:05.522Z,23.28
2022-09-12T12:59:33.636Z,23.29
2022-09-12T13:02:01.854Z,23.29
2022-09-12T13:04:31.185Z,23.30
2022-09-12T13:07:07.701Z,23.33
2022-09-12T13:09:39.538Z,23.33
2022-09-12T13:12:09.224Z,23.34
2022-09-12T13:14:52.919Z,23.34
2022-09-12T13:17:29.345Z,23.36
2022-09-12T13:20:26.690Z,23.36
2022-09-12T13:22:55.950Z,23.35
2022-09-12T13:25:27.179Z,23.36
2022-09-12T13:28:16.564Z,23.37
2022-09-12T13:30:45.684Z,23.37
2022-09-12T13:33:19.884Z,23.36
2022-09-12T13:35:55.899Z,23.37
2022-09-12T13:38:27.831Z,23.36
2022-09-12T13:41:04.212Z,23.36
2022-09-12T13:43:38.115Z,23.35
2022-09-12T13:46:06.271Z,23.35
2022-09-12T13:48:34.521Z,23.36
2022-09-12T13:51:03.069Z,23.36
2022-09-12T13:53:36.008Z,23.36
2022-09-12T13:56:04.905Z,23.36
2022-09-12T13:58:33.725Z,23.37
2022-09-12T14:01:03.299Z,23.37
2022-09-12T14:03:50.087Z,23.38
2022-09-12T14:06:19.006Z,23.38
2022-09-12T14:08:48.764Z,23.38
2022-09-12T14:11:26.004Z,23.38
2022-09-12T14:13:55.232Z,23.39
2022-09-12T14:16:23.498Z,23.40
2022-09-12T14:18:52.567Z,23.40
2022-09-12T14:21:31.213Z,23.40
2022-09-12T14:24:00.839Z,23.39
2022-09-12T14:26:32.461Z,23.39
2022-09-12T14:29:00.627Z,23.39
2022-09-12T14:31:31.088Z,23.40
2022-09-12T14:34:10.060Z,23.40
2022-09-12T14:36:41.044Z,23.40
2022-09-12T14:39:18.315Z,23.40
2022-09-12T14:41:47.047Z,23.39
2022-09-12T14:44:19.286Z,23.40
2022-09-12T14:46:47.360Z,23.39
2022-09-12T14:49:17.693Z,23.41
2022-09-12T14:51:51.440Z,23.40
2022-09-12T14:54:42.592Z,23.42
2022-09-12T14:57:34.297Z,23.41
2022-09-12T15:00:20.274Z,23.41
2022-09-12T15:02:48.552Z,23.41
2022-09-12T15:05:18.969Z,23.41
2022-09-12T15:07:55.808Z,23.41
2022-09-12T15:10:27.700Z,23.42
2022-09-12T15:13:10.897Z,23.42
2022-09-12T15:15:39.933Z,23.41
2022-09-12T15:18:08.276Z,23.43
2022-09-12T15:20:37.370Z,23.44
2022-09-12T15:23:06.069Z,23.44
2022-09-12T15:25:35.476Z,23.44
2022-09-12T15:28:06.607Z,23.42
2022-09-12T15:30:34.779Z,23.43
2022-09-12T15:33:02.852Z,23.42
2022-09-12T15:35:30.913Z,23.42
2022-09-12T15:37:58.992Z,23.42
2022-09-12T15:40:27.085Z,23.42
2022-09-12T15:42:56.582Z,23.42
2022-09-12T15:45:27.367Z,23.42
2022-09-12T15:47:55.515Z,23.41
2022-09-12T15:50:23.595Z,23.41
2022-09-12T15:52:51.724Z,23.41
2022-09-12T15:55:20.936Z,23.41
2022-09-12T15:57:49.077Z,23.42
2022-09-12T16:00:19.062Z,23.42
2022-09-12T16:02:48.970Z,23.42
2022-09-12T16:05:18.172Z,23.42
2022-09-12T16:07:46.251Z,23.44
2022-09-12T16:10:17.592Z,23.42
2022-09-12T16:12:46.173Z,23.43
2022-09-12T16:15:15.169Z,23.42
2022-09-12T16:17:44.667Z,23.43
2022-09-12T16:20:12.804Z,23.43
2022-09-12T16:22:40.885Z,23.42
2022-09-12T16:25:09.565Z,23.42
2022-09-12T16:27:37.864Z,23.43
2022-09-12T16:30:06.942Z,23.42
2022-09-12T16:32:35.272Z,23.42
2022-09-12T16:35:05.151Z,23.42
2022-09-12T16:37:34.563Z,23.41
2022-09-12T16:40:02.824Z,23.42
2022-09-12T16:42:31.117Z,23.41
2022-09-12T16:44:59.139Z,23.40
2022-09-12T16:47:27.309Z,23.39
2022-09-12T16:49:55.343Z,23.39
2022-09-12T16:52:24.827Z,23.39
2022-09-12T16:54:52.870Z,23.38
2022-09-12T16:57:21.060Z,23.37
2022-09-12T16:59:49.099Z,23.36
2022-09-12T17:02:17.293Z,23.36
2022-09-12T17:04:45.384Z,23.36
2022-09-12T17:07:13.551Z,23.35
2022-09-12T17:09:46.252Z,23.34
2022-09-12T17:12:16.056Z,23.34
2022-09-12T17:14:44.239Z,23.34
2022-09-12T17:17:12.311Z,23.33
2022-09-12T17:19:40.403Z,23.33
2022-09-12T17:22:08.467Z,23.33
2022-09-12T17:24:36.548Z,23.32
2022-09-12T17:27:06.385Z,23.31
2022-09-12T17:29:35.876Z,23.32
2022-09-12T17:32:04.155Z,23.31
2022-09-12T17:34:32.307Z,23.31
2022-09-12T17:37:00.365Z,23.30
2022-09-12T17:39:28.530Z,23.30
2022-09-12T17:41:57.813Z,23.30
2022-09-12T17:44:27.324Z,23.27
2022-09-12T17:46:55.399Z,23.28
2022-09-12T17:49:23.482Z,23.27
2022-09-12T17:51:52.184Z,23.27
2022-09-12T17:54:20.907Z,23.28
2022-09-12T17:56:51.315Z,23.27
2022-09-12T17:59:20.781Z,23.28
2022-09-12T18:02:08.013Z,23.27
2022-09-12T18:04:36.444Z,23.26
2022-09-12T18:07:05.080Z,23.27
2022-09-12T18:09:33.189Z,23.27
2022-09-12T18:12:01.344Z,23.27
2022-09-12T18:14:29.412Z,23.27
2022-09-12T18:17:00.245Z,23.28
2022-09-12T18:19:28.543Z,23.28
2022-09-12T18:21:56.592Z,23.28
2022-09-12T18:24:24.852Z,23.28
2022-09-12T18:26:52.984Z,23.28
2022-09-12T18:29:21.061Z,23.27
2022-09-12T18:31:49.163Z,23.28
2022-09-12T18:34:18.883Z,23.28
2022-09-12T18:36:47.564Z,23.27
2022-09-12T18:39:15.670Z,23.25
2022-09-12T18:41:43.898Z,23.25
2022-09-12T18:44:12.813Z,23.24
2022-09-12T18:46:40.921Z,23.24
2022-09-12T18:49:09.523Z,23.23
2022-09-12T18:51:41.729Z,23.23
2022-09-12T18:54:13.062Z,23.23
2022-09-12T18:56:43.580Z,23.22
2022-09-12T18:59:12.906Z,23.21
2022-09-12T19:01:41.165Z,23.22
2022-09-12T19:04:09.904Z,23.22
2022-09-12T19:06:40.291Z,23.22
2022-09-12T19:09:09.120Z,23.22
2022-09-12T19:11:38.197Z,23.22
2022-09-12T19:14:06.509Z,23.21
2022-09-12T19:16:34.800Z,23.18
2022-09-12T19:19:03.182Z,23.17
2022-09-12T19:21:34.422Z,23.17
2022-09-12T19:24:05.346Z,23.16
2022-09-12T19:26:33.504Z,23.15
2022-09-12T19:29:03.026Z,23.13
2022-09-12T19:31:31.329Z,23.13
2022-09-12T19:34:00.999Z,23.12
2022-09-12T19:36:46.367Z,23.10
2022-09-12T19:39:17.219Z,23.10
2022-09-12T19:41:45.480Z,23.08
2022-09-12T19:44:13.576Z,23.07
2022-09-12T19:46:41.806Z,23.07
2022-09-12T19:49:11.328Z,23.06
2022-09-12T19:51:39.400Z,23.06
2022-09-12T19:54:07.898Z,23.06
2022-09-12T19:56:37.436Z,23.04
2022-09-12T19:59:05.563Z,23.04
2022-09-12T20:01:34.797Z,23.03
2022-09-12T20:04:03.451Z,23.03
2022-09-12T20:06:31.519Z,23.01
2022-09-12T20:09:00.011Z,23.01
2022-09-12T20:11:28.075Z,23.01
2022-09-12T20:13:57.513Z,23.00
2022-09-12T20:16:28.502Z,22.98
2022-09-12T20:18:57.452Z,22.98
2022-09-12T20:21:31.271Z,22.97
2022-09-12T20:24:03.383Z,22.96
2022-09-12T20:26:31.657Z,22.96
2022-09-12T20:29:01.339Z,22.95
2022-09-12T20:31:30.335Z,22.94
2022-09-12T20:33:58.593Z,22.94
2022-09-12T20:36:26.857Z,22.93
2022-09-12T20:38:56.770Z,22.92
2022-09-12T20:41:25.227Z,22.91
2022-09-12T20:43:53.412Z,22.91
2022-09-12T20:46:23.058Z,22.90
2022-09-12T20:48:51.297Z,22.89
2022-09-12T20:51:19.472Z,22.88
2022-09-12T20:53:47.578Z,22.88
2022-09-12T20:56:15.709Z,22.88
2022-09-12T20:58:44.751Z,22.88
2022-09-12T21:01:13.229Z,22.87
2022-09-12T21:03:43.118Z,22.86
2022-09-12T21:06:12.570Z,22.86
2022-09-12T21:08:40.652Z,22.86
2022-09-12T21:11:08.796Z,22.85
2022-09-12T21:13:36.882Z,22.84
2022-09-12T21:16:06.010Z,22.84
2022-09-12T21:18:34.388Z,22.83
2022-09-12T21:21:04.083Z,22.83
2022-09-12T21:23:32.220Z,22.83
2022-09-12T21:26:00.440Z,22.81
2022-09-12T21:28:28.548Z,22.81
2022-09-12T21:30:56.665Z,22.81
2022-09-12T21:33:24.991Z,22.80
2022-09-12T21:35:53.028Z,22.79
2022-09-12T21:38:22.501Z,22.80
2022-09-12T21:40:50.571Z,22.78
2022-09-12T21:43:18.649Z,22.79
2022-09-12T21:45:46.711Z,22.78
2022-09-12T21:48:14.807Z,22.78
2022-09-12T21:50:42.863Z,22.76
2022-09-12T21:53:10.940Z,22.76
2022-09-12T21:55:40.371Z,22.76
2022-09-12T21:58:08.452Z,22.76
2022-09-12T22:00:36.493Z,22.74
2022-09-12T22:03:04.923Z,22.75
2022-09-12T22:05:33.651Z,22.74
2022-09-12T22:08:02.009Z,22.74
2022-09-12T22:10:30.071Z,22.73
2022-09-12T22:12:59.527Z,22.73
2022-09-12T22:15:42.806Z,22.73
2022-09-12T22:18:11.541Z,22.72
2022-09-12T22:20:39.601Z,22.72
2022-09-12T22:23:25.361Z,22.71
2022-09-12T22:25:55.059Z,22.71
2022-09-12T22:28:25.240Z,22.70
2022-09-12T22:30:54.769Z,22.70
2022-09-12T22:33:23.056Z,22.69
2022-09-12T22:35:51.135Z,22.69
2022-09-12T22:38:19.157Z,22.69
2022-09-12T22:40:47.232Z,22.67
2022-09-12T22:43:15.504Z,22.68
2022-09-12T22:45:45.025Z,22.68
2022-09-12T22:48:13.050Z,22.67
2022-09-12T22:50:41.228Z,22.67
2022-09-12T22:53:09.248Z,22.67
2022-09-12T22:55:37.396Z,22.65
2022-09-12T22:58:05.413Z,22.65
2022-09-12T23:00:33.714Z,22.66
2022-09-12T23:03:03.237Z,22.65
2022-09-12T23:05:31.561Z,22.64
2022-09-12T23:07:59.589Z,22.64
2022-09-12T23:10:27.681Z,22.64
2022-09-12T23:12:56.031Z,22.64
2022-09-12T23:15:24.174Z,22.63
2022-09-12T23:17:52.195Z,22.64
2022-09-12T23:20:21.716Z,22.63
2022-09-12T23:22:49.937Z,22.62
2022-09-12T23:25:18.236Z,22.62
2022-09-12T23:27:48.302Z,22.61
2022-09-12T23:30:20.180Z,22.62
2022-09-12T23:32:49.492Z,22.61
2022-09-12T23:35:19.737Z,22.60
2022-09-12T23:37:49.224Z,22.60
2022-09-12T23:40:17.845Z,22.59
2022-09-12T23:42:45.928Z,22.59
2022-09-12T23:45:13.980Z,22.59
2022-09-12T23:47:42.049Z,22.60
2022-09-12T23:50:10.391Z,22.60
2022-09-12T23:52:38.475Z,22.60
2022-09-12T23:55:09.050Z,22.60
2022-09-12T23:57:37.127Z,22.60
